Pagrindinis puslapis
METAR-TAF:

METAR-TAF

Oro uostai :

Spangdahlem, Vokietija

platuma: 49-59N, ilguma: 006-42E, Aukštis: 365 m

Dabartinis oras

Ataskaita buvo paskelbta 38 minutes, ne 09:56 UTC
Vėjas 8 kt iš Rytų
Temperatūra 15°C
Drėgmė 41%
Slėgis 1028 hPa
Matomumas 10 km arba daugiau
Giedras dangus

METAR: ETAD 200956Z AUTO 10008KT 9999 CLR 15/02 A3036 RMK AO2 SLP272 T01460022

Laikas: 12:34 (10:34 UTC)

Prognozė

Ataskaita buvo paskelbta 6 valandos ir 36 minutes, ne 03:58 UTC
Prognozė galioja nuo 20 metu 04 UTC su 21 metu 10 UTC
Vėjas 6 kt iš Šiaurės Rytų
Matomumas 10 km arba daugiau
Giedras dangus
Tapsmas
nuo 20 metu 07 UTC su 20 metu 08 UTC
Vėjas 12 kt iš Rytų su gūsio iki 18 kt
Matomumas 10 km arba daugiau
Mažai debesys ne aukštis 3000 ft
Tapsmas
nuo 20 metu 17 UTC su 20 metu 18 UTC
Vėjas 9 kt iš Rytų
Matomumas 10 km arba daugiau
Giedras dangus

TAF: ETAD 200358Z 2004/2110 04006KT 9999 SKC QNH3033INS BECMG 2007/2008 08012G18KT 9999 FEW030 QNH3023INS BECMG 2017/2018 08009KT 9999 SKC QNH3030INS TX19/2014Z TN06/2005Z

Orai ataskaitas ir orų prognozės (METAR, TAF).

turimą stotys yra geltonos ir raudonos taškus žemėlapyje.

Perkelti pele per norėdami pamatyti stoties vardą.

Tada spustelėkite, norėdami matyti oro stebėjimo ir prognozės.

Norėdami pakeisti žemėlapį: spustelėkite ant žalios mygtukų su juodo kryžiaus žemyn,; žalią mygtuką su brūkšneliu, jei norite nutolinti; arba žalių rodyklių gretimoms žemėlapius.


METAR-TAF: